Time;durP1;ratioP1;P1;durP2;ratioP2;P2;SDS_P1;SDS_P2;PMS_P1;PMS_P2;Temp;Humidity;BMP_temperature;BMP_pressure;BME280_temperature;BME280_humidity;BME280_pressure;Samples;Min_cycle;Max_cycle;Signal;HPM_P1;HPM_P2
2023/06/08 00:01:25;;;;;;;;;5.00;5.00;;;;;23.60;50.00;99629.84;5054437;28;45291;-73
2023/06/08 00:03:52;;;;;;;;;4.33;4.33;;;;;23.50;49.58;99627.59;5039998;28;45532;-74
2023/06/08 00:06:20;;;;;;;;;4.00;4.00;;;;;23.50;49.00;99640.94;5039202;28;47019;-77
2023/06/08 00:08:46;;;;;;;;;5.00;4.00;;;;;23.58;48.01;99633.50;5043766;28;45216;-76
2023/06/08 00:11:12;;;;;;;;;5.00;5.00;;;;;23.59;48.05;99630.75;5055465;28;45340;-76
2023/06/08 00:13:37;;;;;;;;;6.00;6.00;;;;;23.55;48.36;99631.78;5057431;28;45570;-74
2023/06/08 00:16:04;;;;;;;;;3.00;3.00;;;;;23.51;48.63;99632.84;5050283;28;45555;-74
2023/06/08 00:18:36;;;;;;;;;5.33;5.00;;;;;23.36;48.48;99620.13;5048197;28;45453;-79
2023/06/08 00:21:02;;;;;;;;;5.00;5.00;;;;;23.43;48.37;99618.94;5041757;28;45654;-76
2023/06/08 00:23:28;;;;;;;;;6.33;5.67;;;;;23.51;47.81;99627.50;5037872;28;45529;-74
2023/06/08 00:25:53;;;;;;;;;4.00;4.00;;;;;23.57;48.00;99621.09;5019370;28;45424;-74
2023/06/08 00:28:20;;;;;;;;;5.00;5.00;;;;;23.56;47.73;99616.69;5037661;28;45430;-76
2023/06/08 00:30:46;;;;;;;;;4.33;4.33;;;;;23.71;46.98;99629.41;5037833;28;45420;-73
2023/06/08 00:33:11;;;;;;;;;4.00;4.00;;;;;23.70;47.43;99616.16;5038713;28;45719;-73
2023/06/08 00:35:37;;;;;;;;;4.00;4.00;;;;;23.77;47.38;99617.63;5050270;28;46167;-75
2023/06/08 00:38:03;;;;;;;;;4.33;4.00;;;;;23.81;46.72;99617.50;5037640;28;45372;-75
2023/06/08 00:40:28;;;;;;;;;4.00;4.00;;;;;23.79;47.04;99611.34;5052661;28;45516;-75
2023/06/08 00:42:53;;;;;;;;;4.67;4.67;;;;;23.85;47.21;99612.91;5040846;28;45572;-74
2023/06/08 00:45:19;;;;;;;;;5.00;5.00;;;;;23.79;46.87;99600.66;5050214;28;45549;-75
2023/06/08 00:47:46;;;;;;;;;5.00;4.00;;;;;23.84;47.32;99608.50;5035852;28;45456;-74
2023/06/08 00:50:12;;;;;;;;;6.00;6.00;;;;;23.86;47.07;99597.78;5044043;28;45440;-74
2023/06/08 00:52:39;;;;;;;;;3.33;3.33;;;;;23.82;46.96;99597.03;5047038;28;45635;-75
2023/06/08 00:55:06;;;;;;;;;5.00;3.33;;;;;23.86;47.32;99598.66;5033949;28;45562;-74
2023/06/08 00:57:33;;;;;;;;;4.00;4.00;;;;;23.82;47.36;99587.22;5045226;28;45544;-74
2023/06/08 01:00:07;;;;;;;;;5.00;4.00;;;;;23.80;47.43;99580.22;5042203;28;45540;-74
2023/06/08 01:02:34;;;;;;;;;5.00;3.33;;;;;23.87;47.47;99595.03;5046226;28;45545;-76
2023/06/08 01:05:02;;;;;;;;;5.00;5.00;;;;;23.90;46.72;99594.94;5051903;28;45437;-74
2023/06/08 01:07:33;;;;;;;;;3.00;3.00;;;;;23.91;46.76;99593.13;5056094;28;45616;-76
2023/06/08 01:10:08;;;;;;;;;5.00;5.00;;;;;23.84;46.70;99592.50;5056803;28;45599;-74
2023/06/08 01:12:50;;;;;;;;;4.00;3.33;;;;;23.91;46.95;99591.31;5056728;28;45488;-78
2023/06/08 01:15:27;;;;;;;;;4.00;3.67;;;;;23.90;46.89;99594.94;5052940;28;47461;-74
2023/06/08 01:18:04;;;;;;;;;5.00;4.00;;;;;23.88;46.56;99590.59;5044884;28;45387;-77
2023/06/08 01:21:06;;;;;;;;;5.00;4.67;;;;;23.87;47.07;99599.50;5050477;28;45347;-74
2023/06/08 01:24:12;;;;;;;;;4.00;4.00;;;;;23.79;46.99;99582.00;5043363;28;45461;-74
2023/06/08 01:26:49;;;;;;;;;6.00;5.00;;;;;23.82;47.17;99597.91;5056090;28;45416;-78
2023/06/08 01:29:15;;;;;;;;;5.00;5.00;;;;;23.84;46.45;99600.50;5056347;28;45545;-75
2023/06/08 01:31:41;;;;;;;;;5.00;5.00;;;;;23.81;46.53;99587.28;5055231;28;45765;-75
2023/06/08 01:34:10;;;;;;;;;6.00;5.00;;;;;23.86;46.38;99598.66;5056472;28;45770;-75
2023/06/08 01:36:41;;;;;;;;;4.00;4.00;;;;;23.85;46.21;99599.56;5037368;28;45419;-75
2023/06/08 01:39:25;;;;;;;;;5.00;4.00;;;;;23.83;46.47;99593.44;5037983;28;45337;-77
2023/06/08 01:41:55;;;;;;;;;4.67;4.67;;;;;23.80;46.06;99585.56;5042598;28;45422;-73
2023/06/08 01:44:23;;;;;;;;;4.00;4.00;;;;;23.89;45.84;99590.50;5054241;28;45406;-76
2023/06/08 01:46:55;;;;;;;;;3.67;3.00;;;;;23.77;46.04;99574.97;5036551;28;46276;-76
2023/06/08 01:49:25;;;;;;;;;4.67;3.33;;;;;23.87;46.01;99592.38;5055604;28;45437;-75
2023/06/08 01:51:51;;;;;;;;;3.00;3.00;;;;;23.84;45.74;99584.50;5040250;28;45267;-76
2023/06/08 01:54:17;;;;;;;;;4.33;4.33;;;;;23.79;45.80;99584.66;5055924;28;45907;-75
2023/06/08 01:56:42;;;;;;;;;4.67;4.00;;;;;23.78;45.98;99574.94;5055893;28;45382;-76
2023/06/08 01:59:08;;;;;;;;;5.00;4.67;;;;;23.77;46.22;99564.31;5044458;28;45579;-74
2023/06/08 02:01:33;;;;;;;;;3.33;3.33;;;;;23.77;46.19;99575.88;5036328;28;45407;-76
2023/06/08 02:03:59;;;;;;;;;4.00;4.00;;;;;23.71;46.64;99570.75;5035095;28;45634;-76
2023/06/08 02:06:24;;;;;;;;;4.00;4.00;;;;;23.68;46.50;99564.69;5042439;28;45327;-76
2023/06/08 02:08:50;;;;;;;;;3.33;3.33;;;;;23.65;47.06;99562.13;5045319;28;45416;-75
2023/06/08 02:11:15;;;;;;;;;4.00;3.67;;;;;23.63;46.33;99557.75;5036618;28;45581;-76
2023/06/08 02:13:42;;;;;;;;;4.00;4.00;;;;;23.63;47.14;99568.41;5040778;28;45446;-75
2023/06/08 02:16:08;;;;;;;;;4.00;4.00;;;;;23.50;46.44;99545.81;5036397;28;46115;-75
2023/06/08 02:18:35;;;;;;;;;2.67;2.67;;;;;23.58;46.30;99549.06;5050238;28;45485;-76
2023/06/08 02:21:04;;;;;;;;;5.67;5.00;;;;;23.61;46.20;99550.72;5038260;28;45569;-74
2023/06/08 02:23:30;;;;;;;;;5.00;5.00;;;;;23.61;46.79;99540.91;5056275;28;45293;-74
2023/06/08 02:25:55;;;;;;;;;2.67;2.67;;;;;23.58;46.33;99540.19;5041966;28;45947;-76
2023/06/08 02:28:21;;;;;;;;;4.67;4.00;;;;;23.51;46.82;99522.69;5034837;28;45661;-76
2023/06/08 02:30:47;;;;;;;;;4.67;4.33;;;;;23.54;46.58;99533.25;5036868;28;45386;-74
2023/06/08 02:33:14;;;;;;;;;6.67;5.00;;;;;23.45;47.43;99534.47;5036201;28;45597;-74
2023/06/08 02:35:39;;;;;;;;;4.67;4.67;;;;;23.36;47.41;99526.84;5034483;28;46220;-76
2023/06/08 02:38:05;;;;;;;;;4.00;3.00;;;;;23.37;47.03;99533.91;5033405;28;45563;-74
2023/06/08 02:40:31;;;;;;;;;3.33;3.33;;;;;23.30;47.52;99533.28;5023268;28;46469;-74
2023/06/08 02:42:56;;;;;;;;;4.00;4.00;;;;;23.35;46.84;99536.59;5038868;28;45663;-74
2023/06/08 02:45:22;;;;;;;;;5.00;4.33;;;;;23.29;46.44;99530.66;5039981;28;46181;-76
2023/06/08 02:47:48;;;;;;;;;4.00;4.00;;;;;23.30;47.13;99541.28;5047603;28;45323;-76
2023/06/08 02:50:13;;;;;;;;;3.33;3.33;;;;;23.30;47.10;99543.03;5049457;28;45381;-74
2023/06/08 02:52:39;;;;;;;;;4.00;3.67;;;;;23.30;47.45;99543.94;5044877;28;45573;-76
2023/06/08 02:55:05;;;;;;;;;3.00;3.00;;;;;23.28;46.71;99537.78;5052485;28;45216;-74
2023/06/08 02:57:32;;;;;;;;;4.00;3.33;;;;;23.28;46.36;99542.22;5045215;28;45682;-74
2023/06/08 02:59:58;;;;;;;;;4.33;4.33;;;;;23.36;46.33;99546.34;5058797;28;45337;-74
2023/06/08 03:02:24;;;;;;;;;4.67;4.33;;;;;23.36;46.80;99545.50;5059150;28;45527;-73
2023/06/08 03:04:52;;;;;;;;;4.33;4.00;;;;;23.35;46.22;99541.94;5058605;28;45487;-74
2023/06/08 03:07:18;;;;;;;;;4.33;4.00;;;;;23.28;46.64;99539.56;5052783;28;45561;-74
2023/06/08 03:09:43;;;;;;;;;4.33;4.00;;;;;23.31;46.80;99552.78;5048453;28;45516;-74
2023/06/08 03:12:12;;;;;;;;;3.67;3.67;;;;;23.30;47.02;99556.38;5043514;28;45661;-74
2023/06/08 03:14:40;;;;;;;;;4.00;4.00;;;;;23.24;46.74;99552.16;5054290;28;45429;-74
2023/06/08 03:17:06;;;;;;;;;4.33;4.33;;;;;23.28;46.88;99555.56;5020711;28;45337;-73
2023/06/08 03:19:32;;;;;;;;;3.67;3.67;;;;;23.26;47.03;99557.41;5048749;28;45306;-76
2023/06/08 03:22:00;;;;;;;;;4.33;3.67;;;;;23.22;47.86;99554.03;5040979;28;45481;-74
2023/06/08 03:24:31;;;;;;;;;4.33;4.33;;;;;23.13;47.24;99541.91;5055677;28;45390;-74
2023/06/08 03:26:58;;;;;;;;;4.33;3.67;;;;;23.17;47.15;99551.50;5020439;28;45426;-74
2023/06/08 03:29:25;;;;;;;;;4.33;4.00;;;;;23.09;47.45;99542.94;5049548;28;45531;-74
2023/06/08 03:31:50;;;;;;;;;4.00;4.00;;;;;23.07;47.26;99541.28;5043705;28;45358;-74
2023/06/08 03:34:17;;;;;;;;;5.33;4.33;;;;;23.11;46.82;99546.41;5056587;28;45440;-74
2023/06/08 03:36:43;;;;;;;;;4.33;3.00;;;;;23.10;47.17;99550.03;5049557;28;45510;-74
2023/06/08 03:39:09;;;;;;;;;4.00;3.00;;;;;23.11;47.01;99554.41;5049325;28;45372;-74
2023/06/08 03:41:35;;;;;;;;;3.00;3.00;;;;;23.11;47.12;99548.22;5043521;28;45316;-74
2023/06/08 03:44:01;;;;;;;;;4.00;4.00;;;;;23.10;47.19;99557.13;5054108;28;45290;-74
2023/06/08 03:46:26;;;;;;;;;3.67;3.67;;;;;23.06;47.40;99548.41;5044732;28;45605;-74
2023/06/08 03:48:52;;;;;;;;;3.00;3.00;;;;;23.02;46.74;99544.97;5047791;28;45577;-74
2023/06/08 03:51:21;;;;;;;;;3.00;2.00;;;;;23.03;46.60;99553.81;5052752;28;45508;-73
2023/06/08 03:53:46;;;;;;;;;1.67;1.67;;;;;23.10;46.28;99551.78;5036780;28;45532;-74
2023/06/08 03:56:12;;;;;;;;;4.00;3.00;;;;;23.18;46.06;99563.06;5038006;28;45408;-74
2023/06/08 03:58:38;;;;;;;;;3.00;3.00;;;;;23.12;46.29;99540.16;5048343;28;45420;-73
2023/06/08 04:01:04;;;;;;;;;4.00;4.00;;;;;23.12;46.14;99537.50;5040257;28;45525;-74
2023/06/08 04:03:29;;;;;;;;;3.00;3.00;;;;;23.23;46.28;99555.75;5054303;28;45409;-75
2023/06/08 04:05:56;;;;;;;;;4.00;3.33;;;;;23.21;45.86;99531.81;5042181;28;45576;-74
2023/06/08 04:08:22;;;;;;;;;3.33;3.33;;;;;23.25;45.76;99537.03;5036057;28;45573;-73
2023/06/08 04:10:48;;;;;;;;;4.67;4.00;;;;;23.32;45.94;99551.88;5038324;28;45371;-76
2023/06/08 04:13:14;;;;;;;;;4.00;3.00;;;;;23.28;45.70;99543.13;5053752;28;46006;-75
2023/06/08 04:15:40;;;;;;;;;3.00;3.00;;;;;23.27;45.62;99545.84;5039937;28;45544;-74
2023/06/08 04:18:05;;;;;;;;;4.67;3.67;;;;;23.31;45.85;99550.13;5056782;28;45346;-74
2023/06/08 04:20:34;;;;;;;;;3.00;3.00;;;;;23.31;45.15;99534.13;5043946;28;45519;-74
2023/06/08 04:22:59;;;;;;;;;4.00;4.00;;;;;23.45;45.34;99549.59;5053293;28;45586;-75
2023/06/08 04:25:25;;;;;;;;;3.00;3.00;;;;;23.51;45.35;99558.19;5038118;28;45576;-75
2023/06/08 04:27:54;;;;;;;;;5.00;4.00;;;;;23.55;45.90;99566.97;5036038;28;45348;-74
2023/06/08 04:30:21;;;;;;;;;4.67;4.00;;;;;23.53;45.36;99553.69;5046525;28;45541;-74
2023/06/08 04:32:47;;;;;;;;;2.00;2.00;;;;;23.62;45.53;99552.47;5037603;28;45569;-74
2023/06/08 04:35:12;;;;;;;;;3.00;3.00;;;;;23.66;45.16;99562.09;5039325;28;45341;-74
2023/06/08 04:37:38;;;;;;;;;5.67;5.67;;;;;23.54;45.03;99526.09;5038925;28;45379;-74
2023/06/08 04:40:04;;;;;;;;;3.33;3.33;;;;;23.76;45.23;99557.25;5057147;28;45513;-75
2023/06/08 04:42:32;;;;;;;;;4.33;4.33;;;;;23.73;44.92;99541.38;5038691;28;45613;-74
2023/06/08 04:45:00;;;;;;;;;5.00;4.33;;;;;23.87;45.17;99555.03;5052454;28;45901;-74
2023/06/08 04:47:29;;;;;;;;;3.00;3.00;;;;;23.87;45.02;99549.69;5029281;28;45436;-73
2023/06/08 04:49:56;;;;;;;;;3.67;3.67;;;;;23.77;44.69;99524.31;5043976;28;45504;-79
2023/06/08 04:52:22;;;;;;;;;4.00;4.00;;;;;23.98;44.90;99538.59;5036252;28;45570;-73
2023/06/08 04:54:52;;;;;;;;;4.00;4.00;;;;;24.04;44.32;99540.16;5052288;28;45551;-74
2023/06/08 04:57:19;;;;;;;;;4.00;4.00;;;;;24.15;44.09;99551.22;5042959;28;45531;-75
2023/06/08 04:59:45;;;;;;;;;4.00;4.00;;;;;24.20;43.40;99538.56;5037465;28;45489;-74
2023/06/08 05:02:10;;;;;;;;;4.00;3.00;;;;;24.30;43.58;99539.91;5037575;28;45296;-75
2023/06/08 05:04:36;;;;;;;;;4.00;4.00;;;;;24.26;43.27;99516.09;5056871;28;45469;-74
2023/06/08 05:07:01;;;;;;;;;4.00;3.33;;;;;24.57;43.19;99545.03;5048099;28;45216;-75
2023/06/08 05:09:27;;;;;;;;;3.00;3.00;;;;;24.65;43.09;99536.69;5050009;28;45415;-74
2023/06/08 05:11:52;;;;;;;;;3.33;2.00;;;;;24.88;41.91;99546.34;5038908;28;46089;-74
2023/06/08 05:14:21;;;;;;;;;4.33;4.33;;;;;24.94;42.26;99546.06;5038116;28;45577;-77
2023/06/08 05:16:48;;;;;;;;;4.00;3.67;;;;;25.13;42.11;99541.63;5037505;28;45488;-78
2023/06/08 05:19:18;;;;;;;;;4.00;4.00;;;;;25.30;42.04;99548.88;5037250;28;45477;-76
2023/06/08 05:21:52;;;;;;;;;1.67;1.00;;;;;25.42;41.80;99536.75;5037055;28;46244;-77
2023/06/08 05:24:20;;;;;;;;;6.00;6.00;;;;;25.60;41.51;99535.00;5051914;28;45515;-73
2023/06/08 05:26:46;;;;;;;;;3.00;3.00;;;;;25.81;40.55;99554.50;5040084;28;45452;-77
2023/06/08 05:29:12;;;;;;;;;3.33;3.33;;;;;25.88;40.26;99534.50;5049594;28;45513;-75
2023/06/08 05:31:39;;;;;;;;;2.67;2.67;;;;;26.07;40.24;99544.34;5024998;28;46084;-76
2023/06/08 05:34:05;;;;;;;;;4.00;4.00;;;;;26.18;39.89;99539.31;5038246;28;45457;-75
2023/06/08 05:36:30;;;;;;;;;3.67;3.67;;;;;26.36;40.52;99535.72;5047551;28;45535;-73
2023/06/08 05:38:56;;;;;;;;;3.00;3.00;;;;;26.54;39.52;99544.59;5047625;28;45557;-75
2023/06/08 05:41:22;;;;;;;;;4.67;3.67;;;;;26.73;39.89;99538.31;5035993;28;45655;-74
2023/06/08 05:43:47;;;;;;;;;3.00;3.00;;;;;26.88;39.26;99528.56;5047343;28;45399;-77
2023/06/08 05:46:15;;;;;;;;;3.00;3.00;;;;;27.03;39.00;99522.38;5047397;28;45402;-73
2023/06/08 05:48:41;;;;;;;;;3.00;3.00;;;;;27.26;38.67;99531.03;5035083;28;45562;-74
2023/06/08 05:51:06;;;;;;;;;5.00;4.00;;;;;27.35;38.49;99530.50;5041279;28;45878;-74
2023/06/08 05:53:32;;;;;;;;;4.00;3.00;;;;;27.53;38.03;99528.59;5046504;28;46090;-78
2023/06/08 05:55:57;;;;;;;;;3.00;3.00;;;;;27.69;37.74;99526.78;5055931;28;45368;-74
2023/06/08 05:58:24;;;;;;;;;1.00;1.00;;;;;27.83;37.24;99520.63;5041025;28;45579;-73
2023/06/08 06:00:52;;;;;;;;;4.33;3.67;;;;;28.91;36.84;99515.09;5039917;28;46603;-80
2023/06/08 06:03:18;;;;;;;;;2.00;2.00;;;;;31.55;32.28;99510.84;5051911;28;45727;-74
2023/06/08 06:05:44;;;;;;;;;3.00;3.00;;;;;31.54;31.88;99519.94;5037898;28;45296;-76
2023/06/08 06:08:09;;;;;;;;;3.00;3.00;;;;;31.00;33.13;99524.66;5046663;28;45591;-75
2023/06/08 06:10:36;;;;;;;;;3.00;3.00;;;;;30.99;33.14;99520.22;5049751;28;45960;-79
2023/06/08 06:13:01;;;;;;;;;3.33;3.00;;;;;30.89;32.41;99535.31;5045296;28;45852;-80
2023/06/08 06:15:27;;;;;;;;;2.00;2.00;;;;;31.00;32.64;99537.25;5046319;28;45500;-76
2023/06/08 06:17:53;;;;;;;;;2.00;2.00;;;;;31.31;31.87;99525.97;5049775;28;45500;-75
2023/06/08 06:20:18;;;;;;;;;2.67;2.67;;;;;34.27;28.15;99535.41;5047236;28;45727;-76
2023/06/08 06:22:44;;;;;;;;;2.33;2.33;;;;;33.92;28.26;99538.34;5048800;28;45425;-79
2023/06/08 06:25:10;;;;;;;;;2.33;2.33;;;;;32.69;29.52;99533.72;5050767;28;45435;-80
2023/06/08 06:27:35;;;;;;;;;3.00;2.00;;;;;31.68;29.98;99517.94;5050432;28;45346;-80
2023/06/08 06:30:01;;;;;;;;;3.00;2.00;;;;;31.13;31.32;99533.56;5055656;28;45410;-82
2023/06/08 06:32:26;;;;;;;;;2.33;2.00;;;;;30.48;31.89;99530.94;5058202;28;45327;-75
2023/06/08 06:34:52;;;;;;;;;2.33;2.33;;;;;30.09;32.87;99540.75;5056714;28;45504;-74
2023/06/08 06:37:17;;;;;;;;;3.00;2.33;;;;;29.80;33.46;99545.38;5052162;28;45671;-76
2023/06/08 06:39:43;;;;;;;;;2.00;2.00;;;;;29.50;33.50;99538.31;5052313;28;45525;-74
2023/06/08 06:42:09;;;;;;;;;3.00;3.00;;;;;29.26;34.51;99530.00;5029720;28;45503;-80
2023/06/08 06:44:35;;;;;;;;;3.00;3.00;;;;;29.35;34.17;99534.78;5054733;28;45529;-74
2023/06/08 06:47:00;;;;;;;;;3.00;2.00;;;;;30.93;32.63;99521.50;5027940;28;45517;-75
2023/06/08 06:49:26;;;;;;;;;3.00;3.00;;;;;30.82;32.69;99539.38;5056085;28;46355;-73
2023/06/08 06:51:51;;;;;;;;;1.33;1.33;;;;;30.52;33.35;99551.31;5050528;28;45505;-75
2023/06/08 06:54:17;;;;;;;;;3.00;3.00;;;;;30.08;33.76;99544.41;5052801;28;45511;-78
2023/06/08 06:56:42;;;;;;;;;2.33;2.33;;;;;29.66;33.65;99555.19;5058826;28;45374;-79
2023/06/08 06:59:09;;;;;;;;;3.00;2.67;;;;;29.31;33.67;99546.72;5054501;28;45472;-80
2023/06/08 07:01:35;;;;;;;;;3.00;3.00;;;;;28.96;34.34;99539.00;5046315;28;45686;-74
2023/06/08 07:04:03;;;;;;;;;2.33;2.33;;;;;28.73;35.19;99549.38;5059349;28;45512;-76
2023/06/08 07:06:30;;;;;;;;;3.00;2.33;;;;;28.68;34.79;99547.91;5057538;28;45524;-81
2023/06/08 07:08:56;;;;;;;;;3.00;2.00;;;;;28.66;34.98;99541.75;5056583;28;46070;-77
2023/06/08 07:11:21;;;;;;;;;3.00;2.00;;;;;28.75;34.70;99547.44;5057097;28;45366;-74
2023/06/08 07:13:47;;;;;;;;;2.00;2.00;;;;;29.06;34.82;99545.53;5057747;28;45441;-78
2023/06/08 07:16:12;;;;;;;;;1.67;1.67;;;;;29.19;34.59;99540.28;5041434;28;45671;-75
2023/06/08 07:18:38;;;;;;;;;1.33;1.33;;;;;29.94;33.61;99553.41;5037782;28;45521;-78
2023/06/08 07:21:04;;;;;;;;;2.67;2.00;;;;;29.94;33.69;99538.13;5058481;28;45489;-78
2023/06/08 07:23:29;;;;;;;;;2.00;2.00;;;;;30.18;33.09;99542.81;5054053;28;45362;-79
2023/06/08 07:25:55;;;;;;;;;2.00;2.00;;;;;30.55;33.30;99564.59;5038902;28;45633;-77
2023/06/08 07:28:20;;;;;;;;;2.00;2.00;;;;;30.76;32.57;99538.00;5049796;28;46074;-80
2023/06/08 07:30:46;;;;;;;;;3.00;2.33;;;;;30.71;32.65;99559.88;5046522;28;45525;-78
2023/06/08 07:33:11;;;;;;;;;2.00;1.00;;;;;30.93;32.08;99550.31;5045881;28;45978;-81
2023/06/08 07:35:37;;;;;;;;;3.00;2.33;;;;;31.31;32.04;99557.50;5051197;28;45591;-80
2023/06/08 07:38:02;;;;;;;;;3.67;2.00;;;;;32.04;30.34;99536.94;5057744;28;46261;-82
2023/06/08 07:40:28;;;;;;;;;1.00;1.00;;;;;33.17;29.89;99550.78;5058511;28;45457;-84
2023/06/08 07:42:53;;;;;;;;;5.67;5.67;;;;;34.76;27.19;99543.91;5040195;28;45437;-81
2023/06/08 07:45:19;;;;;;;;;1.00;1.00;;;;;36.68;26.05;99541.97;5054688;28;46298;-77
2023/06/08 07:47:45;;;;;;;;;2.00;1.00;;;;;39.48;24.04;99552.00;5054242;28;46090;-76
2023/06/08 07:50:11;;;;;;;;;2.00;2.00;;;;;39.28;22.57;99544.03;5040829;28;45407;-77
2023/06/08 07:52:38;;;;;;;;;0.00;0.00;;;;;38.46;24.22;99557.09;5052149;28;45519;-76
2023/06/08 07:55:07;;;;;;;;;2.00;1.00;;;;;38.54;22.57;99557.19;5057502;28;45603;-80
2023/06/08 07:57:36;;;;;;;;;2.00;1.00;;;;;38.68;23.74;99552.16;5055474;28;46360;-76
2023/06/08 08:00:02;;;;;;;;;0.67;0.67;;;;;40.15;22.38;99539.19;5027697;28;45386;-77
2023/06/08 08:02:28;;;;;;;;;0.67;0.67;;;;;41.48;20.68;99554.41;5048525;28;45571;-78
2023/06/08 08:04:54;;;;;;;;;4.00;4.00;;;;;42.85;20.41;99547.25;5039258;28;45422;-77
2023/06/08 08:07:20;;;;;;;;;0.67;0.00;;;;;43.58;17.56;99539.22;5049368;28;45438;-77
2023/06/08 08:09:45;;;;;;;;;1.00;1.00;;;;;42.68;19.00;99546.59;5036440;28;45638;-76
2023/06/08 08:12:11;;;;;;;;;1.00;1.00;;;;;42.67;18.65;99541.28;5037842;28;45435;-76
2023/06/08 08:14:37;;;;;;;;;0.67;0.67;;;;;42.26;20.23;99545.22;5054349;28;47310;-79
2023/06/08 08:17:04;;;;;;;;;1.67;0.67;;;;;41.59;19.44;99532.06;5049012;28;47434;-79
2023/06/08 08:19:30;;;;;;;;;0.00;0.00;;;;;40.59;19.94;99512.50;5033099;28;45332;-78
2023/06/08 08:21:55;;;;;;;;;1.00;1.00;;;;;39.75;20.96;99507.13;5056761;28;45307;-78
2023/06/08 08:24:21;;;;;;;;;1.67;1.67;;;;;39.09;22.56;99511.50;5056162;28;45497;-79
2023/06/08 08:26:46;;;;;;;;;2.00;2.00;;;;;38.53;22.22;99530.91;5050555;28;45706;-76
2023/06/08 08:29:12;;;;;;;;;1.67;1.33;;;;;37.97;23.23;99505.66;5037899;28;45389;-82
2023/06/08 08:31:37;;;;;;;;;0.67;0.67;;;;;37.56;23.42;99515.25;5038403;28;45420;-79
2023/06/08 08:34:03;;;;;;;;;0.33;0.33;;;;;37.32;23.54;99503.06;5051682;28;45512;-80
2023/06/08 08:36:28;;;;;;;;;3.67;3.67;;;;;37.14;24.52;99519.34;5053024;28;46074;-78
2023/06/08 08:38:54;;;;;;;;;1.33;1.33;;;;;36.74;24.12;99503.28;5056346;28;45590;-80
2023/06/08 08:41:21;;;;;;;;;1.00;1.00;;;;;36.70;25.18;99516.31;5043426;28;45468;-80
2023/06/08 08:44:05;;;;;;;;;1.00;1.00;;;;;36.53;25.04;99528.81;5038751;28;45540;-82
2023/06/08 08:46:37;;;;;;;;;0.33;0.33;;;;;36.35;25.35;99534.13;5047261;28;46976;-80
2023/06/08 08:49:08;;;;;;;;;0.67;0.00;;;;;36.19;25.31;99540.16;5055088;28;45564;-79
2023/06/08 08:51:38;;;;;;;;;0.33;0.00;;;;;36.18;24.99;99516.66;5055788;28;45569;-80
2023/06/08 08:54:05;;;;;;;;;1.00;1.00;;;;;36.35;25.25;99546.84;5054168;28;45453;-79
2023/06/08 08:56:40;;;;;;;;;2.33;1.33;;;;;36.11;26.23;99533.66;5055882;28;45498;-79
2023/06/08 08:59:06;;;;;;;;;3.00;3.00;;;;;35.56;26.28;99536.84;5056403;28;45539;-80
2023/06/08 09:01:33;;;;;;;;;2.00;1.00;;;;;35.31;26.78;99538.19;5039648;28;45559;-77
2023/06/08 09:04:03;;;;;;;;;0.67;0.67;;;;;35.03;27.45;99533.34;5039283;28;45518;-79
2023/06/08 09:06:29;;;;;;;;;1.00;1.00;;;;;35.09;27.09;99531.09;5038800;28;46491;-79
2023/06/08 09:08:54;;;;;;;;;2.00;2.00;;;;;34.86;27.18;99517.72;5055983;28;45520;-78
2023/06/08 09:11:21;;;;;;;;;2.00;2.00;;;;;34.74;27.20;99518.75;5049872;28;46953;-79
2023/06/08 09:13:46;;;;;;;;;2.67;2.00;;;;;34.44;27.73;99523.09;5049226;28;45455;-79
2023/06/08 09:16:20;;;;;;;;;1.33;1.33;;;;;34.49;27.81;99522.72;5043571;28;47900;-77
2023/06/08 09:18:46;;;;;;;;;1.67;1.67;;;;;34.38;28.22;99532.66;5047657;28;45543;-78
2023/06/08 09:21:23;;;;;;;;;2.00;1.00;;;;;33.80;28.33;99524.84;5045719;28;45418;-77
2023/06/08 09:24:05;;;;;;;;;1.00;1.00;;;;;33.81;28.89;99531.97;5044550;28;45556;-79
2023/06/08 09:26:32;;;;;;;;;4.00;3.67;;;;;33.84;28.87;99539.00;5039632;28;47607;-77
2023/06/08 09:29:01;;;;;;;;;1.00;1.00;;;;;33.73;28.31;99530.91;5020495;28;45255;-78
2023/06/08 09:31:30;;;;;;;;;2.00;1.00;;;;;33.59;28.73;99542.84;5027424;28;45428;-80
2023/06/08 09:34:07;;;;;;;;;1.00;1.00;;;;;33.36;28.21;99529.31;5038135;28;45502;-75
2023/06/08 09:36:39;;;;;;;;;0.33;0.33;;;;;32.93;28.52;99519.25;5048333;28;46031;-79
2023/06/08 09:39:08;;;;;;;;;2.00;2.00;;;;;32.72;29.95;99535.31;5041052;28;45434;-76
2023/06/08 09:41:37;;;;;;;;;2.33;2.33;;;;;32.50;30.14;99544.22;5046604;28;45447;-80
2023/06/08 09:44:23;;;;;;;;;4.00;4.00;;;;;32.38;29.93;99540.59;5035964;28;45331;-78
2023/06/08 09:46:49;;;;;;;;;2.00;2.00;;;;;32.07;30.05;99534.84;5039366;28;45403;-80
2023/06/08 09:49:16;;;;;;;;;0.67;0.67;;;;;31.99;30.42;99525.56;5046407;28;45461;-78
2023/06/08 09:51:48;;;;;;;;;0.67;0.67;;;;;32.05;30.31;99525.13;5048424;28;45411;-77
2023/06/08 09:54:19;;;;;;;;;0.33;0.00;;;;;32.12;29.76;99523.69;5036939;28;45508;-76
2023/06/08 09:56:57;;;;;;;;;2.33;2.33;;;;;32.10;31.04;99518.41;5042070;28;45440;-76
2023/06/08 09:59:30;;;;;;;;;1.00;1.00;;;;;32.15;30.86;99522.59;5044074;28;45482;-77
2023/06/08 10:02:02;;;;;;;;;1.00;1.00;;;;;32.03;31.19;99524.38;5045570;28;45426;-77
2023/06/08 10:04:36;;;;;;;;;1.33;1.33;;;;;32.04;31.64;99532.38;5041909;28;45478;-76
2023/06/08 10:07:05;;;;;;;;;3.00;2.67;;;;;32.01;31.18;99540.72;5050514;28;45501;-80
2023/06/08 10:09:37;;;;;;;;;1.67;1.00;;;;;32.03;30.75;99538.78;5049542;28;45650;-76
2023/06/08 10:12:02;;;;;;;;;1.00;1.00;;;;;31.78;30.79;99533.44;5039390;28;45300;-76
2023/06/08 10:14:28;;;;;;;;;2.00;1.67;;;;;31.56;31.17;99528.78;5041907;28;45484;-78
2023/06/08 10:16:56;;;;;;;;;2.00;2.00;;;;;31.42;31.43;99524.38;5056432;28;45467;-79
2023/06/08 10:19:23;;;;;;;;;1.00;1.00;;;;;31.54;32.26;99539.69;5057649;28;45169;-78
2023/06/08 10:21:50;;;;;;;;;2.00;2.00;;;;;31.46;32.04;99502.47;5045690;28;45431;-78
2023/06/08 10:24:19;;;;;;;;;1.67;1.67;;;;;31.54;31.78;99536.13;5025703;28;45614;-77
2023/06/08 10:26:46;;;;;;;;;1.33;1.00;;;;;31.44;31.87;99525.97;5055913;28;46270;-78
2023/06/08 10:29:11;;;;;;;;;3.00;3.00;;;;;31.39;32.30;99520.03;5052152;28;45653;-78
2023/06/08 10:31:42;;;;;;;;;2.00;2.00;;;;;31.28;32.28;99534.31;5060254;28;45592;-78
2023/06/08 10:34:13;;;;;;;;;1.67;1.67;;;;;31.10;32.28;99524.84;5037157;28;45693;-78
2023/06/08 10:36:42;;;;;;;;;1.00;1.00;;;;;31.12;32.04;99534.56;5043533;28;45864;-76
2023/06/08 10:39:16;;;;;;;;;4.00;2.33;;;;;31.10;31.50;99520.31;5055707;28;45374;-79
2023/06/08 10:41:52;;;;;;;;;2.00;1.67;;;;;31.18;31.42;99508.97;5055353;28;45864;-79
2023/06/08 10:44:31;;;;;;;;;3.67;3.00;;;;;31.35;31.05;99526.63;5053927;28;45471;-78
2023/06/08 10:47:00;;;;;;;;;3.33;3.00;;;;;31.47;31.14;99525.75;5041831;28;46016;-77
2023/06/08 10:49:33;;;;;;;;;4.00;3.67;;;;;31.46;31.07;99513.25;5054063;28;45897;-80
2023/06/08 10:52:00;;;;;;;;;2.33;2.33;;;;;31.48;30.66;99526.63;5051301;28;45540;-78
2023/06/08 10:54:26;;;;;;;;;3.00;1.33;;;;;31.43;30.79;99521.53;5049401;28;45478;-80
2023/06/08 10:56:54;;;;;;;;;8.33;4.33;;;;;31.51;31.34;99519.19;5037533;28;45766;-75
2023/06/08 10:59:36;;;;;;;;;2.67;2.67;;;;;31.46;31.15;99521.34;5057435;28;45370;-77
2023/06/08 11:02:05;;;;;;;;;1.67;1.00;;;;;31.24;30.96;99502.28;5055367;28;45676;-78
2023/06/08 11:04:32;;;;;;;;;1.67;1.67;;;;;31.28;30.75;99515.44;5047540;28;45621;-77
2023/06/08 11:07:07;;;;;;;;;0.00;0.00;;;;;31.31;31.24;99523.28;5054207;28;45545;-78
2023/06/08 11:09:35;;;;;;;;;6.00;6.00;;;;;31.35;31.31;99514.97;5050813;28;45501;-77
2023/06/08 11:12:01;;;;;;;;;3.67;2.67;;;;;31.33;31.30;99513.25;5052630;28;45314;-78
2023/06/08 11:14:27;;;;;;;;;1.67;1.00;;;;;31.42;31.49;99517.13;5054502;28;45410;-80
2023/06/08 11:16:55;;;;;;;;;2.00;1.67;;;;;31.41;31.38;99504.59;5040252;28;47092;-79
2023/06/08 11:19:24;;;;;;;;;3.00;3.00;;;;;31.66;31.53;99508.22;5046271;28;45400;-81
2023/06/08 11:21:53;;;;;;;;;2.33;2.00;;;;;31.68;31.19;99504.44;5038669;28;45390;-78
2023/06/08 11:24:28;;;;;;;;;1.67;1.00;;;;;31.86;30.71;99512.97;5040537;28;45428;-79
2023/06/08 11:27:01;;;;;;;;;2.00;2.00;;;;;31.83;30.98;99513.19;5048127;28;45987;-78
2023/06/08 11:29:27;;;;;;;;;1.67;1.67;;;;;31.91;30.93;99515.31;5038879;28;45315;-81
2023/06/08 11:31:54;;;;;;;;;1.00;1.00;;;;;31.81;31.50;99504.34;5036206;28;45353;-81
2023/06/08 11:34:22;;;;;;;;;3.67;3.33;;;;;31.64;31.05;99477.78;5045423;28;45357;-77
2023/06/08 11:36:49;;;;;;;;;2.33;1.67;;;;;31.66;30.85;99502.81;5047623;28;45472;-80